Combine, Texas
Current Conditions -  °F | °C
As of 3:50 PM on Friday 24 Oct 2014 (Local Time) from KHQZ Reporting Station
Clear Clear  
Wind Chill: 81°   Ceiling: Unl
Heat Index: 81°   Visibility: 10mi
Dew Point: 57°   Wind: 7mph
Humidity: 45%   Direction: 170°S
Pressure: 30.09"   Gusts: NA
Location:  32.6388°N, 96.5631°W
Report Text: KHQZ 242050Z 17006KT 10SM CLR 27/14 A3009
Loading
Personal Weather Stations






























Interactive Weather Map
Tropical Storm Tracking
New forecast layout! Learn more

10-Day Weather Forecast

Advertisements
Track Severe Weather on mobile